createdAt,value
2023-04-19T00:03:10.706Z,103161.84
2023-04-19T00:08:07.731Z,103156.63
2023-04-19T00:13:04.181Z,103147.88
2023-04-19T00:18:00.697Z,103139.13
2023-04-19T00:22:59.054Z,103139.13
2023-04-19T00:27:55.531Z,103138.34
2023-04-19T00:32:52.212Z,103143.66
2023-04-19T00:37:48.792Z,103142.78
2023-04-19T00:42:45.302Z,103139.31
2023-04-19T00:47:41.882Z,103126.22
2023-04-19T00:52:38.417Z,103128.03
2023-04-19T00:57:35.431Z,103121.03
2023-04-19T01:02:40.638Z,103131.59
2023-04-19T01:07:37.225Z,103128.19
2023-04-19T01:12:33.721Z,103129.06
2023-04-19T01:17:31.832Z,103136.97
2023-04-19T01:22:30.009Z,103124.69
2023-04-19T01:27:26.545Z,103122.03
2023-04-19T01:32:23.074Z,103127.31
2023-04-19T01:37:19.619Z,103134.28
2023-04-19T01:42:16.133Z,103124.59
2023-04-19T01:47:12.766Z,103129.03
2023-04-19T01:52:09.408Z,103124.69
2023-04-19T01:57:05.896Z,103109.69
2023-04-19T02:02:02.439Z,103109.66
2023-04-19T02:06:58.938Z,103109.69
2023-04-19T02:11:55.452Z,103104.44
2023-04-19T02:16:52.134Z,103110.66
2023-04-19T02:21:48.638Z,103116.81
2023-04-19T02:26:45.293Z,103106.34
2023-04-19T02:31:41.828Z,103110.78
2023-04-19T02:36:38.244Z,103105.53
2023-04-19T02:41:34.738Z,103104.66
2023-04-19T02:46:31.556Z,103102.91
2023-04-19T02:51:28.088Z,103106.47
2023-04-19T02:56:24.629Z,103103.00
2023-04-19T03:01:24.217Z,103101.25
2023-04-19T03:06:20.866Z,103093.34
2023-04-19T03:11:17.424Z,103098.69
2023-04-19T03:16:13.948Z,103094.38
2023-04-19T03:21:10.483Z,103101.50
2023-04-19T03:26:07.011Z,103086.63
2023-04-19T03:31:03.637Z,103084.84
2023-04-19T03:36:02.996Z,103072.50
2023-04-19T03:41:00.159Z,103082.19
2023-04-19T03:45:56.723Z,103076.94
2023-04-19T03:50:53.535Z,103073.41
2023-04-19T03:55:50.032Z,103069.94
2023-04-19T04:00:46.501Z,103073.44
2023-04-19T04:05:43.024Z,103070.78
2023-04-19T04:10:41.567Z,103066.38
2023-04-19T04:15:42.535Z,103038.41
2023-04-19T04:20:44.449Z,103057.66
2023-04-19T04:25:50.492Z,103033.13
2023-04-19T04:30:47.551Z,103040.19
2023-04-19T04:35:44.200Z,103060.28
2023-04-19T04:53:13.818Z,103043.66
2023-04-19T04:58:14.527Z,103036.56
2023-04-19T05:03:29.352Z,103038.25
2023-04-19T05:08:27.075Z,103066.19
2023-04-19T05:28:02.953Z,103061.25
2023-04-19T07:18:30.998Z,102987.28
2023-04-19T07:36:47.850Z,102964.97
2023-04-19T07:43:01.273Z,102986.91
2023-04-19T07:55:53.887Z,102989.78
2023-04-19T08:00:59.030Z,102967.88
2023-04-19T08:12:42.761Z,102981.31
2023-04-19T08:43:42.105Z,102944.13
2023-04-19T09:01:57.640Z,102942.88
2023-04-19T10:26:16.896Z,102855.06
2023-04-19T11:20:33.398Z,102781.41
2023-04-19T11:33:22.314Z,102771.50
2023-04-19T11:38:56.484Z,102777.03
2023-04-19T11:56:26.714Z,102770.56
2023-04-19T12:01:46.106Z,102773.41
2023-04-19T12:08:15.490Z,102747.47
2023-04-19T12:27:30.911Z,102741.25
2023-04-19T12:33:30.535Z,102730.59
2023-04-19T12:38:38.021Z,102722.38
2023-04-19T12:43:42.256Z,102740.56
2023-04-19T12:49:39.633Z,102699.53
2023-04-19T12:54:42.122Z,102716.63
2023-04-19T13:13:15.564Z,102717.50
2023-04-19T13:18:57.826Z,102688.94
2023-04-19T13:30:14.611Z,102665.28
2023-04-19T13:35:11.195Z,102697.28
2023-04-19T13:40:18.642Z,102722.84
2023-04-19T13:45:15.994Z,102739.91
2023-04-19T13:50:34.411Z,102685.75
2023-04-19T14:14:24.836Z,102675.44
2023-04-19T14:26:21.965Z,102675.63
2023-04-19T14:45:05.867Z,102640.00
2023-04-19T14:51:07.213Z,102624.34
2023-04-19T15:14:22.689Z,102626.78
2023-04-19T15:24:47.725Z,102625.31
2023-04-19T15:30:05.281Z,102603.97
2023-04-19T15:35:03.976Z,102613.00
2023-04-19T15:40:00.610Z,102629.66
2023-04-19T15:45:05.415Z,102614.50
2023-04-19T15:50:01.984Z,102615.47
2023-04-19T15:55:10.623Z,102596.09
2023-04-19T16:00:13.104Z,102582.09
2023-04-19T16:11:29.505Z,102605.44
2023-04-19T16:16:26.978Z,102596.59
2023-04-19T16:21:23.544Z,102595.84
2023-04-19T16:26:20.034Z,102619.47
2023-04-19T16:31:16.733Z,102589.22
2023-04-19T16:36:13.222Z,102610.34
2023-04-19T16:41:12.042Z,102598.13
2023-04-19T16:46:29.630Z,102557.63
2023-04-19T16:51:26.849Z,102616.06
2023-04-19T16:56:24.196Z,102621.53
2023-04-19T17:01:20.660Z,102597.16
2023-04-19T17:06:17.422Z,102604.59
2023-04-19T17:11:14.484Z,102594.09
2023-04-19T17:16:11.121Z,102590.75
2023-04-19T17:21:07.752Z,102590.97
2023-04-19T17:26:04.385Z,102584.19
2023-04-19T17:31:01.083Z,102585.25
2023-04-19T17:35:57.751Z,102586.16
2023-04-19T17:40:55.524Z,102579.50
2023-04-19T17:45:52.138Z,102580.53
2023-04-19T17:50:51.605Z,102594.78
2023-04-19T17:55:48.269Z,102603.72
2023-04-19T18:00:44.799Z,102599.41
2023-04-19T18:05:41.619Z,102602.19
2023-04-19T18:10:38.125Z,102594.63
2023-04-19T18:15:34.674Z,102594.25
2023-04-19T18:20:31.275Z,102593.66
2023-04-19T18:25:29.043Z,102588.59
2023-04-19T18:30:25.576Z,102588.09
2023-04-19T18:35:22.075Z,102592.78
2023-04-19T18:40:18.898Z,102585.88
2023-04-19T18:45:15.266Z,102581.47
2023-04-19T18:50:12.012Z,102589.69
2023-04-19T18:55:08.835Z,102590.84
2023-04-19T19:00:10.831Z,102596.19
2023-04-19T19:05:08.377Z,102598.06
2023-04-19T19:10:18.349Z,102592.81
2023-04-19T19:15:15.438Z,102571.69
2023-04-19T19:20:12.016Z,102578.78
2023-04-19T19:25:08.905Z,102563.84
2023-04-19T19:30:07.504Z,102560.53
2023-04-19T19:35:08.133Z,102559.25
2023-04-19T19:40:11.037Z,102563.94
2023-04-19T19:45:08.998Z,102576.50
2023-04-19T19:55:08.483Z,102561.13
2023-04-19T20:00:28.036Z,102575.50
2023-04-19T20:05:24.694Z,102581.94
2023-04-19T20:10:21.739Z,102569.69
2023-04-19T20:15:18.248Z,102565.00
2023-04-19T20:20:14.868Z,102564.06
2023-04-19T20:30:23.433Z,102554.13
2023-04-19T20:35:19.926Z,102556.78
2023-04-19T20:40:16.562Z,102590.09
2023-04-19T20:45:14.238Z,102578.56
2023-04-19T20:50:11.272Z,102546.06
2023-04-19T20:55:08.015Z,102522.53
2023-04-19T21:00:07.888Z,102522.78
2023-04-19T21:05:04.597Z,102536.06
2023-04-19T21:10:01.098Z,102511.97
2023-04-19T21:14:57.555Z,102499.41
2023-04-19T21:19:54.047Z,102485.88
2023-04-19T21:24:50.852Z,102482.19
2023-04-19T21:29:47.305Z,102477.47
2023-04-19T21:34:44.008Z,102463.06
2023-04-19T21:39:40.436Z,102447.81
2023-04-19T21:44:36.943Z,102452.84
2023-04-19T21:49:33.521Z,102436.81
2023-04-19T21:54:34.028Z,102440.94
2023-04-19T21:59:31.221Z,102431.19
2023-04-19T22:04:31.303Z,102409.78
2023-04-19T22:09:28.551Z,102422.16
2023-04-19T22:14:25.031Z,102458.34
2023-04-19T22:19:23.192Z,102441.00
2023-04-19T22:24:20.417Z,102428.66
2023-04-19T22:29:17.462Z,102396.34
2023-04-19T22:34:14.085Z,102401.88
2023-04-19T22:39:10.524Z,102386.81
2023-04-19T22:44:07.103Z,102380.56
2023-04-19T22:49:03.532Z,102414.06
2023-04-19T22:53:59.983Z,102368.28
2023-04-19T22:58:57.291Z,102363.09
2023-04-19T23:03:53.797Z,102362.97
2023-04-19T23:08:51.105Z,102351.44
2023-04-19T23:13:48.745Z,102331.13
2023-04-19T23:18:45.925Z,102337.25
2023-04-19T23:23:42.374Z,102315.09
2023-04-19T23:28:38.873Z,102307.19
2023-04-19T23:33:35.493Z,102307.28
2023-04-19T23:38:31.931Z,102314.50
2023-04-19T23:43:28.409Z,102335.91
2023-04-19T23:48:24.833Z,102301.50
2023-04-19T23:53:22.292Z,102288.44
2023-04-19T23:58:18.731Z,102300.91
